Terminal Aerodrome Forecast
Issued by NWS

Current Version | Previous Version | Text Only | Print | Product List | Glossary On
Versions: 1 2 3 4 5 6 7 8 9 10 11 12 13 14 15
000
FTUS42 KMLB 211100 RRA
TAFSUA
TAF
KSUA 211141Z 2112/2212 26003KT P6SM SCT020 BKN060
     FM211400 28005KT P6SM SCT020 BKN120
     FM211700 10007KT P6SM VCTS SCT025CB BKN080
      TEMPO 2118/2120 3SM TSRA BKN030CB
     FM220100 VRB02KT P6SM FEW025 BKN120=

USA.gov is the U.S. government's official web portal to all federal, state and local government web resources and services.